sensor_id;sensor_type;location;lat;lon;timestamp;temperature;humidity
13482;DHT22;6813;60.352;15.746;2023-05-10T00:00:34;11.90;68.10
13482;DHT22;6813;60.352;15.746;2023-05-10T00:02:59;12.00;68.30
13482;DHT22;6813;60.352;15.746;2023-05-10T00:05:25;12.00;68.10
13482;DHT22;6813;60.352;15.746;2023-05-10T00:07:51;12.00;68.20
13482;DHT22;6813;60.352;15.746;2023-05-10T00:10:16;11.90;68.90
13482;DHT22;6813;60.352;15.746;2023-05-10T00:12:42;11.70;69.00
13482;DHT22;6813;60.352;15.746;2023-05-10T00:15:10;11.80;69.10
13482;DHT22;6813;60.352;15.746;2023-05-10T00:17:36;11.60;69.30
13482;DHT22;6813;60.352;15.746;2023-05-10T00:20:01;11.40;69.90
13482;DHT22;6813;60.352;15.746;2023-05-10T00:22:27;11.30;70.00
13482;DHT22;6813;60.352;15.746;2023-05-10T00:24:53;11.20;70.10
13482;DHT22;6813;60.352;15.746;2023-05-10T00:27:18;11.20;70.70
13482;DHT22;6813;60.352;15.746;2023-05-10T00:29:44;11.20;70.20
13482;DHT22;6813;60.352;15.746;2023-05-10T00:32:10;11.20;69.90
13482;DHT22;6813;60.352;15.746;2023-05-10T00:34:36;11.10;70.10
13482;DHT22;6813;60.352;15.746;2023-05-10T00:37:01;11.00;70.40
13482;DHT22;6813;60.352;15.746;2023-05-10T00:39:27;10.80;71.30
13482;DHT22;6813;60.352;15.746;2023-05-10T00:41:54;10.90;70.50
13482;DHT22;6813;60.352;15.746;2023-05-10T00:44:20;10.80;70.50
13482;DHT22;6813;60.352;15.746;2023-05-10T00:46:46;10.70;70.30
13482;DHT22;6813;60.352;15.746;2023-05-10T00:49:12;10.70;70.40
13482;DHT22;6813;60.352;15.746;2023-05-10T00:51:38;10.80;70.00
13482;DHT22;6813;60.352;15.746;2023-05-10T00:54:04;10.70;70.20
13482;DHT22;6813;60.352;15.746;2023-05-10T00:56:30;10.50;70.20
13482;DHT22;6813;60.352;15.746;2023-05-10T00:58:56;10.60;70.10
13482;DHT22;6813;60.352;15.746;2023-05-10T01:01:22;10.90;69.40
13482;DHT22;6813;60.352;15.746;2023-05-10T01:03:48;11.10;68.50
13482;DHT22;6813;60.352;15.746;2023-05-10T01:06:14;11.20;68.10
13482;DHT22;6813;60.352;15.746;2023-05-10T01:08:40;11.40;67.80
13482;DHT22;6813;60.352;15.746;2023-05-10T01:11:06;11.10;68.20
13482;DHT22;6813;60.352;15.746;2023-05-10T01:13:37;10.80;68.50
13482;DHT22;6813;60.352;15.746;2023-05-10T01:16:04;10.50;68.80
13482;DHT22;6813;60.352;15.746;2023-05-10T01:18:35;10.20;69.30
13482;DHT22;6813;60.352;15.746;2023-05-10T01:34:29;10.10;68.60
13482;DHT22;6813;60.352;15.746;2023-05-10T01:37:17;10.20;68.40
13482;DHT22;6813;60.352;15.746;2023-05-10T01:40:00;10.40;67.90
13482;DHT22;6813;60.352;15.746;2023-05-10T01:42:30;10.60;67.50
13482;DHT22;6813;60.352;15.746;2023-05-10T01:45:39;10.80;67.00
13482;DHT22;6813;60.352;15.746;2023-05-10T01:48:09;11.00;66.50
13482;DHT22;6813;60.352;15.746;2023-05-10T01:50:37;11.10;65.90
13482;DHT22;6813;60.352;15.746;2023-05-10T01:53:06;11.20;65.70
13482;DHT22;6813;60.352;15.746;2023-05-10T01:55:36;11.30;65.70
13482;DHT22;6813;60.352;15.746;2023-05-10T01:58:11;11.30;65.40
13482;DHT22;6813;60.352;15.746;2023-05-10T02:00:43;11.40;65.20
13482;DHT22;6813;60.352;15.746;2023-05-10T02:03:10;11.50;64.80
13482;DHT22;6813;60.352;15.746;2023-05-10T02:05:38;11.40;64.40
13482;DHT22;6813;60.352;15.746;2023-05-10T02:08:07;11.30;64.80
13482;DHT22;6813;60.352;15.746;2023-05-10T02:10:37;11.30;65.00
13482;DHT22;6813;60.352;15.746;2023-05-10T02:13:05;11.30;65.20
13482;DHT22;6813;60.352;15.746;2023-05-10T02:15:33;11.30;65.20
13482;DHT22;6813;60.352;15.746;2023-05-10T02:18:00;11.30;65.60
13482;DHT22;6813;60.352;15.746;2023-05-10T02:20:27;11.30;66.00
13482;DHT22;6813;60.352;15.746;2023-05-10T02:22:55;11.20;66.30
13482;DHT22;6813;60.352;15.746;2023-05-10T02:25:23;11.00;66.80
13482;DHT22;6813;60.352;15.746;2023-05-10T02:27:51;11.00;67.20
13482;DHT22;6813;60.352;15.746;2023-05-10T02:30:18;10.90;67.40
13482;DHT22;6813;60.352;15.746;2023-05-10T02:32:44;10.90;67.60
13482;DHT22;6813;60.352;15.746;2023-05-10T02:35:11;10.90;67.60
13482;DHT22;6813;60.352;15.746;2023-05-10T02:37:38;10.90;67.60
13482;DHT22;6813;60.352;15.746;2023-05-10T02:40:06;10.90;68.10
13482;DHT22;6813;60.352;15.746;2023-05-10T02:42:35;10.90;68.20
13482;DHT22;6813;60.352;15.746;2023-05-10T02:45:03;10.90;68.30
13482;DHT22;6813;60.352;15.746;2023-05-10T02:47:30;10.90;68.70
13482;DHT22;6813;60.352;15.746;2023-05-10T02:49:56;11.00;68.70
13482;DHT22;6813;60.352;15.746;2023-05-10T02:52:27;11.00;68.80
13482;DHT22;6813;60.352;15.746;2023-05-10T02:55:01;11.00;69.20
13482;DHT22;6813;60.352;15.746;2023-05-10T02:57:34;11.00;68.80
13482;DHT22;6813;60.352;15.746;2023-05-10T03:00:01;11.10;68.40
13482;DHT22;6813;60.352;15.746;2023-05-10T03:02:27;11.20;67.90
13482;DHT22;6813;60.352;15.746;2023-05-10T03:04:55;11.30;67.30
13482;DHT22;6813;60.352;15.746;2023-05-10T03:07:21;11.30;67.20
13482;DHT22;6813;60.352;15.746;2023-05-10T03:09:48;11.40;66.60
13482;DHT22;6813;60.352;15.746;2023-05-10T03:12:26;11.40;66.60
13482;DHT22;6813;60.352;15.746;2023-05-10T03:15:02;11.40;65.90
13482;DHT22;6813;60.352;15.746;2023-05-10T03:17:40;11.30;66.80
13482;DHT22;6813;60.352;15.746;2023-05-10T03:20:11;11.30;65.70
13482;DHT22;6813;60.352;15.746;2023-05-10T03:22:42;11.40;65.50
13482;DHT22;6813;60.352;15.746;2023-05-10T03:25:10;11.30;66.30
13482;DHT22;6813;60.352;15.746;2023-05-10T03:27:40;11.20;66.50
13482;DHT22;6813;60.352;15.746;2023-05-10T03:30:10;11.00;67.60
13482;DHT22;6813;60.352;15.746;2023-05-10T03:32:36;10.80;68.00
13482;DHT22;6813;60.352;15.746;2023-05-10T03:35:12;10.90;68.10
13482;DHT22;6813;60.352;15.746;2023-05-10T03:37:39;11.00;67.00
13482;DHT22;6813;60.352;15.746;2023-05-10T03:40:06;11.30;65.80
13482;DHT22;6813;60.352;15.746;2023-05-10T03:42:31;11.40;66.30
13482;DHT22;6813;60.352;15.746;2023-05-10T03:44:57;11.50;66.70
13482;DHT22;6813;60.352;15.746;2023-05-10T03:47:23;11.50;66.60
13482;DHT22;6813;60.352;15.746;2023-05-10T03:49:49;11.10;68.30
13482;DHT22;6813;60.352;15.746;2023-05-10T03:52:14;10.50;69.80
13482;DHT22;6813;60.352;15.746;2023-05-10T03:54:40;10.20;70.80
13482;DHT22;6813;60.352;15.746;2023-05-10T03:57:06;9.90;73.60
13482;DHT22;6813;60.352;15.746;2023-05-10T03:59:32;9.70;74.00
13482;DHT22;6813;60.352;15.746;2023-05-10T04:01:57;9.60;74.70
13482;DHT22;6813;60.352;15.746;2023-05-10T04:04:23;9.50;75.20
13482;DHT22;6813;60.352;15.746;2023-05-10T04:06:49;9.40;75.40
13482;DHT22;6813;60.352;15.746;2023-05-10T04:09:15;9.50;75.20
13482;DHT22;6813;60.352;15.746;2023-05-10T04:11:42;9.60;75.40
13482;DHT22;6813;60.352;15.746;2023-05-10T04:14:08;10.00;73.00
13482;DHT22;6813;60.352;15.746;2023-05-10T04:16:34;10.30;71.90
13482;DHT22;6813;60.352;15.746;2023-05-10T04:18:59;10.60;71.10
13482;DHT22;6813;60.352;15.746;2023-05-10T04:21:25;10.90;69.20
13482;DHT22;6813;60.352;15.746;2023-05-10T04:23:51;11.10;69.20
13482;DHT22;6813;60.352;15.746;2023-05-10T04:26:17;11.30;70.20
13482;DHT22;6813;60.352;15.746;2023-05-10T04:28:42;11.60;68.40
13482;DHT22;6813;60.352;15.746;2023-05-10T04:31:09;11.80;69.70
13482;DHT22;6813;60.352;15.746;2023-05-10T04:33:36;11.80;69.30
13482;DHT22;6813;60.352;15.746;2023-05-10T04:36:02;12.00;68.10
13482;DHT22;6813;60.352;15.746;2023-05-10T04:38:28;12.00;69.90
13482;DHT22;6813;60.352;15.746;2023-05-10T04:40:54;12.20;69.20
13482;DHT22;6813;60.352;15.746;2023-05-10T04:43:20;12.40;67.20
13482;DHT22;6813;60.352;15.746;2023-05-10T04:45:46;12.60;66.50
13482;DHT22;6813;60.352;15.746;2023-05-10T04:48:11;12.80;64.80
13482;DHT22;6813;60.352;15.746;2023-05-10T04:50:38;12.80;65.90
13482;DHT22;6813;60.352;15.746;2023-05-10T04:53:04;12.70;65.80
13482;DHT22;6813;60.352;15.746;2023-05-10T04:55:30;12.60;69.20
13482;DHT22;6813;60.352;15.746;2023-05-10T04:57:56;12.60;67.00
13482;DHT22;6813;60.352;15.746;2023-05-10T05:00:23;12.40;66.50
13482;DHT22;6813;60.352;15.746;2023-05-10T05:02:49;12.50;66.30
13482;DHT22;6813;60.352;15.746;2023-05-10T05:05:14;12.70;66.80
13482;DHT22;6813;60.352;15.746;2023-05-10T05:07:40;12.90;69.30
13482;DHT22;6813;60.352;15.746;2023-05-10T05:10:07;13.10;65.20
13482;DHT22;6813;60.352;15.746;2023-05-10T05:12:33;13.20;65.40
13482;DHT22;6813;60.352;15.746;2023-05-10T05:15:00;13.30;65.90
13482;DHT22;6813;60.352;15.746;2023-05-10T05:17:25;13.60;66.60
13482;DHT22;6813;60.352;15.746;2023-05-10T05:19:51;13.90;66.10
13482;DHT22;6813;60.352;15.746;2023-05-10T05:22:17;14.20;65.20
13482;DHT22;6813;60.352;15.746;2023-05-10T05:24:44;14.60;63.50
13482;DHT22;6813;60.352;15.746;2023-05-10T05:27:10;14.80;61.80
13482;DHT22;6813;60.352;15.746;2023-05-10T05:29:36;14.70;62.30
13482;DHT22;6813;60.352;15.746;2023-05-10T05:32:01;14.80;63.10
13482;DHT22;6813;60.352;15.746;2023-05-10T05:34:27;14.80;61.40
13482;DHT22;6813;60.352;15.746;2023-05-10T05:36:53;15.00;62.20
13482;DHT22;6813;60.352;15.746;2023-05-10T05:39:19;15.20;61.90
13482;DHT22;6813;60.352;15.746;2023-05-10T05:41:45;15.10;60.10
13482;DHT22;6813;60.352;15.746;2023-05-10T05:44:11;14.90;61.40
13482;DHT22;6813;60.352;15.746;2023-05-10T05:46:37;14.80;61.40
13482;DHT22;6813;60.352;15.746;2023-05-10T05:49:02;14.90;62.70
13482;DHT22;6813;60.352;15.746;2023-05-10T05:51:28;15.10;62.60
13482;DHT22;6813;60.352;15.746;2023-05-10T05:53:54;15.10;62.40
13482;DHT22;6813;60.352;15.746;2023-05-10T05:56:19;15.30;62.50
13482;DHT22;6813;60.352;15.746;2023-05-10T05:58:50;15.30;61.50
13482;DHT22;6813;60.352;15.746;2023-05-10T06:01:16;15.60;62.80
13482;DHT22;6813;60.352;15.746;2023-05-10T06:03:42;15.90;60.80
13482;DHT22;6813;60.352;15.746;2023-05-10T06:06:08;15.90;59.90
13482;DHT22;6813;60.352;15.746;2023-05-10T06:08:33;16.10;61.40
13482;DHT22;6813;60.352;15.746;2023-05-10T06:11:00;16.20;61.30
13482;DHT22;6813;60.352;15.746;2023-05-10T06:13:26;16.40;59.80
13482;DHT22;6813;60.352;15.746;2023-05-10T06:15:58;16.50;60.80
13482;DHT22;6813;60.352;15.746;2023-05-10T06:18:24;16.50;59.20
13482;DHT22;6813;60.352;15.746;2023-05-10T06:20:50;16.60;59.10
13482;DHT22;6813;60.352;15.746;2023-05-10T06:23:15;16.60;58.80
13482;DHT22;6813;60.352;15.746;2023-05-10T06:25:41;16.80;58.60
13482;DHT22;6813;60.352;15.746;2023-05-10T06:28:07;16.90;57.50
13482;DHT22;6813;60.352;15.746;2023-05-10T06:30:32;17.10;57.90
13482;DHT22;6813;60.352;15.746;2023-05-10T06:32:58;17.00;58.10
13482;DHT22;6813;60.352;15.746;2023-05-10T06:35:24;17.20;58.50
13482;DHT22;6813;60.352;15.746;2023-05-10T06:37:50;17.50;56.60
13482;DHT22;6813;60.352;15.746;2023-05-10T06:40:17;17.40;56.90
13482;DHT22;6813;60.352;15.746;2023-05-10T06:42:43;17.60;57.40
13482;DHT22;6813;60.352;15.746;2023-05-10T06:45:10;17.80;57.70
13482;DHT22;6813;60.352;15.746;2023-05-10T06:47:36;18.10;57.30
13482;DHT22;6813;60.352;15.746;2023-05-10T06:50:02;18.30;55.70
13482;DHT22;6813;60.352;15.746;2023-05-10T06:52:28;18.50;55.80
13482;DHT22;6813;60.352;15.746;2023-05-10T06:54:54;18.60;55.50
13482;DHT22;6813;60.352;15.746;2023-05-10T06:57:20;18.60;54.70
13482;DHT22;6813;60.352;15.746;2023-05-10T06:59:46;18.80;56.60
13482;DHT22;6813;60.352;15.746;2023-05-10T07:02:12;19.10;54.90
13482;DHT22;6813;60.352;15.746;2023-05-10T07:04:40;19.10;54.80
13482;DHT22;6813;60.352;15.746;2023-05-10T07:07:05;19.10;54.20
13482;DHT22;6813;60.352;15.746;2023-05-10T07:09:31;19.10;54.50
13482;DHT22;6813;60.352;15.746;2023-05-10T07:11:57;19.30;54.30
13482;DHT22;6813;60.352;15.746;2023-05-10T07:14:23;19.30;52.90
13482;DHT22;6813;60.352;15.746;2023-05-10T07:16:49;18.90;53.50
13482;DHT22;6813;60.352;15.746;2023-05-10T07:19:14;19.00;55.00
13482;DHT22;6813;60.352;15.746;2023-05-10T07:21:40;19.00;55.10
13482;DHT22;6813;60.352;15.746;2023-05-10T07:24:08;19.00;54.00
13482;DHT22;6813;60.352;15.746;2023-05-10T07:26:33;19.00;53.60
13482;DHT22;6813;60.352;15.746;2023-05-10T07:28:59;19.00;53.40
13482;DHT22;6813;60.352;15.746;2023-05-10T07:31:25;19.10;54.10
13482;DHT22;6813;60.352;15.746;2023-05-10T07:33:51;19.20;53.80
13482;DHT22;6813;60.352;15.746;2023-05-10T07:36:16;19.40;53.00
13482;DHT22;6813;60.352;15.746;2023-05-10T07:38:42;19.70;53.20
13482;DHT22;6813;60.352;15.746;2023-05-10T07:41:08;20.00;53.10
13482;DHT22;6813;60.352;15.746;2023-05-10T07:43:33;20.00;54.00
13482;DHT22;6813;60.352;15.746;2023-05-10T07:45:59;19.40;50.50
13482;DHT22;6813;60.352;15.746;2023-05-10T07:48:25;18.90;50.90
13482;DHT22;6813;60.352;15.746;2023-05-10T07:50:51;19.10;52.80
13482;DHT22;6813;60.352;15.746;2023-05-10T07:53:17;19.50;52.60
13482;DHT22;6813;60.352;15.746;2023-05-10T07:55:44;19.90;52.20
13482;DHT22;6813;60.352;15.746;2023-05-10T07:58:10;20.20;51.90
13482;DHT22;6813;60.352;15.746;2023-05-10T08:00:36;20.60;52.50
13482;DHT22;6813;60.352;15.746;2023-05-10T08:03:04;20.70;50.20
13482;DHT22;6813;60.352;15.746;2023-05-10T08:05:30;20.60;51.40
13482;DHT22;6813;60.352;15.746;2023-05-10T08:07:56;20.80;50.70
13482;DHT22;6813;60.352;15.746;2023-05-10T08:10:22;21.00;51.10
13482;DHT22;6813;60.352;15.746;2023-05-10T08:12:47;21.10;50.10
13482;DHT22;6813;60.352;15.746;2023-05-10T08:15:13;21.10;48.90
13482;DHT22;6813;60.352;15.746;2023-05-10T08:17:39;21.10;49.80
13482;DHT22;6813;60.352;15.746;2023-05-10T08:20:05;21.20;50.00
13482;DHT22;6813;60.352;15.746;2023-05-10T08:22:31;21.30;49.70
13482;DHT22;6813;60.352;15.746;2023-05-10T08:24:56;21.50;49.10
13482;DHT22;6813;60.352;15.746;2023-05-10T08:27:22;21.50;49.20
13482;DHT22;6813;60.352;15.746;2023-05-10T08:29:48;21.50;49.50
13482;DHT22;6813;60.352;15.746;2023-05-10T08:32:14;21.00;46.20
13482;DHT22;6813;60.352;15.746;2023-05-10T08:34:39;20.90;49.90
13482;DHT22;6813;60.352;15.746;2023-05-10T08:37:05;20.80;47.60
13482;DHT22;6813;60.352;15.746;2023-05-10T08:39:34;20.70;50.20
13482;DHT22;6813;60.352;15.746;2023-05-10T08:42:04;20.90;48.60
13482;DHT22;6813;60.352;15.746;2023-05-10T08:44:34;20.70;48.20
13482;DHT22;6813;60.352;15.746;2023-05-10T08:47:04;20.60;50.10
13482;DHT22;6813;60.352;15.746;2023-05-10T08:49:32;20.70;48.50
13482;DHT22;6813;60.352;15.746;2023-05-10T08:52:01;20.50;45.40
13482;DHT22;6813;60.352;15.746;2023-05-10T08:54:29;20.10;49.20
13482;DHT22;6813;60.352;15.746;2023-05-10T08:56:56;19.80;46.40
13482;DHT22;6813;60.352;15.746;2023-05-10T08:59:22;19.60;49.50
13482;DHT22;6813;60.352;15.746;2023-05-10T09:01:48;19.80;48.80
13482;DHT22;6813;60.352;15.746;2023-05-10T09:04:14;20.20;50.70
13482;DHT22;6813;60.352;15.746;2023-05-10T09:06:40;20.60;49.90
13482;DHT22;6813;60.352;15.746;2023-05-10T09:09:07;20.90;49.40
13482;DHT22;6813;60.352;15.746;2023-05-10T09:11:33;20.90;47.20
13482;DHT22;6813;60.352;15.746;2023-05-10T09:13:58;21.00;48.70
13482;DHT22;6813;60.352;15.746;2023-05-10T09:16:24;21.20;48.60
13482;DHT22;6813;60.352;15.746;2023-05-10T09:18:51;21.00;45.60
13482;DHT22;6813;60.352;15.746;2023-05-10T09:21:19;20.90;48.00
13482;DHT22;6813;60.352;15.746;2023-05-10T09:23:45;21.00;46.10
13482;DHT22;6813;60.352;15.746;2023-05-10T09:26:12;21.10;47.10
13482;DHT22;6813;60.352;15.746;2023-05-10T09:28:55;20.90;45.50
13482;DHT22;6813;60.352;15.746;2023-05-10T09:31:22;20.70;47.10
13482;DHT22;6813;60.352;15.746;2023-05-10T09:33:49;20.90;49.20
13482;DHT22;6813;60.352;15.746;2023-05-10T09:36:16;21.20;47.50
13482;DHT22;6813;60.352;15.746;2023-05-10T09:38:47;21.10;44.90
13482;DHT22;6813;60.352;15.746;2023-05-10T09:41:24;21.20;48.20
13482;DHT22;6813;60.352;15.746;2023-05-10T09:43:55;21.30;48.30
13482;DHT22;6813;60.352;15.746;2023-05-10T09:46:21;21.50;47.40
13482;DHT22;6813;60.352;15.746;2023-05-10T09:48:48;21.30;44.80
13482;DHT22;6813;60.352;15.746;2023-05-10T09:51:21;21.20;45.10
13482;DHT22;6813;60.352;15.746;2023-05-10T09:53:48;20.40;46.90
13482;DHT22;6813;60.352;15.746;2023-05-10T09:56:33;20.50;49.20
13482;DHT22;6813;60.352;15.746;2023-05-10T09:59:03;21.00;50.00
13482;DHT22;6813;60.352;15.746;2023-05-10T10:01:29;21.40;49.20
13482;DHT22;6813;60.352;15.746;2023-05-10T10:03:56;21.60;48.40
13482;DHT22;6813;60.352;15.746;2023-05-10T10:06:23;21.60;48.90
13482;DHT22;6813;60.352;15.746;2023-05-10T10:08:50;21.50;49.10
13482;DHT22;6813;60.352;15.746;2023-05-10T10:11:16;21.50;47.80
13482;DHT22;6813;60.352;15.746;2023-05-10T10:13:42;21.70;49.30
13482;DHT22;6813;60.352;15.746;2023-05-10T10:16:08;21.30;47.60
13482;DHT22;6813;60.352;15.746;2023-05-10T10:18:36;21.20;49.60
13482;DHT22;6813;60.352;15.746;2023-05-10T10:21:08;21.30;45.50
13482;DHT22;6813;60.352;15.746;2023-05-10T10:23:37;21.40;48.10
13482;DHT22;6813;60.352;15.746;2023-05-10T10:26:04;21.50;46.50
13482;DHT22;6813;60.352;15.746;2023-05-10T10:31:36;21.80;48.40
13482;DHT22;6813;60.352;15.746;2023-05-10T10:34:09;21.60;48.30
13482;DHT22;6813;60.352;15.746;2023-05-10T10:36:47;21.10;48.20
13482;DHT22;6813;60.352;15.746;2023-05-10T10:39:14;21.30;48.70
13482;DHT22;6813;60.352;15.746;2023-05-10T10:41:50;21.50;47.60
13482;DHT22;6813;60.352;15.746;2023-05-10T10:52:39;21.50;47.80
13482;DHT22;6813;60.352;15.746;2023-05-10T10:55:13;21.30;48.30
13482;DHT22;6813;60.352;15.746;2023-05-10T10:57:53;20.90;47.80
13482;DHT22;6813;60.352;15.746;2023-05-10T11:00:33;21.10;47.90
13482;DHT22;6813;60.352;15.746;2023-05-10T11:03:07;20.50;46.90
13482;DHT22;6813;60.352;15.746;2023-05-10T11:10:36;20.10;45.40
13482;DHT22;6813;60.352;15.746;2023-05-10T11:13:04;19.80;46.40
13482;DHT22;6813;60.352;15.746;2023-05-10T11:15:35;19.50;46.60
13482;DHT22;6813;60.352;15.746;2023-05-10T11:18:23;19.80;47.20
13482;DHT22;6813;60.352;15.746;2023-05-10T11:21:15;20.10;49.40
13482;DHT22;6813;60.352;15.746;2023-05-10T11:26:09;20.00;44.20
13482;DHT22;6813;60.352;15.746;2023-05-10T11:28:47;19.90;43.10
13482;DHT22;6813;60.352;15.746;2023-05-10T11:31:17;20.00;46.50
13482;DHT22;6813;60.352;15.746;2023-05-10T11:33:50;19.90;45.20
13482;DHT22;6813;60.352;15.746;2023-05-10T11:36:18;20.30;46.70
13482;DHT22;6813;60.352;15.746;2023-05-10T11:38:44;20.60;47.20
13482;DHT22;6813;60.352;15.746;2023-05-10T11:41:11;20.80;46.20
13482;DHT22;6813;60.352;15.746;2023-05-10T11:43:39;20.80;45.80
13482;DHT22;6813;60.352;15.746;2023-05-10T11:46:10;20.70;43.10
13482;DHT22;6813;60.352;15.746;2023-05-10T11:48:38;20.70;46.00
13482;DHT22;6813;60.352;15.746;2023-05-10T11:51:04;21.00;46.50
13482;DHT22;6813;60.352;15.746;2023-05-10T11:53:31;21.20;44.80
13482;DHT22;6813;60.352;15.746;2023-05-10T11:56:10;20.90;45.10
13482;DHT22;6813;60.352;15.746;2023-05-10T11:58:38;20.90;41.10
13482;DHT22;6813;60.352;15.746;2023-05-10T12:01:05;20.60;42.60
13482;DHT22;6813;60.352;15.746;2023-05-10T12:03:32;20.20;42.70
13482;DHT22;6813;60.352;15.746;2023-05-10T12:05:58;20.20;44.80
13482;DHT22;6813;60.352;15.746;2023-05-10T12:08:26;20.40;44.00
13482;DHT22;6813;60.352;15.746;2023-05-10T12:10:53;20.10;43.10
13482;DHT22;6813;60.352;15.746;2023-05-10T12:13:20;20.00;43.60
13482;DHT22;6813;60.352;15.746;2023-05-10T12:15:46;20.10;43.40
13482;DHT22;6813;60.352;15.746;2023-05-10T12:18:14;20.00;43.90
13482;DHT22;6813;60.352;15.746;2023-05-10T12:20:47;20.00;43.90
13482;DHT22;6813;60.352;15.746;2023-05-10T12:23:13;20.00;43.20
13482;DHT22;6813;60.352;15.746;2023-05-10T12:25:39;20.00;44.30
13482;DHT22;6813;60.352;15.746;2023-05-10T12:28:07;20.00;45.40
13482;DHT22;6813;60.352;15.746;2023-05-10T12:30:35;19.90;43.80
13482;DHT22;6813;60.352;15.746;2023-05-10T12:33:02;20.00;47.40
13482;DHT22;6813;60.352;15.746;2023-05-10T12:35:32;20.10;44.90
13482;DHT22;6813;60.352;15.746;2023-05-10T12:37:58;20.10;46.90
13482;DHT22;6813;60.352;15.746;2023-05-10T12:40:24;20.40;46.80
13482;DHT22;6813;60.352;15.746;2023-05-10T12:42:50;20.00;44.70
13482;DHT22;6813;60.352;15.746;2023-05-10T12:45:17;19.80;45.60
13482;DHT22;6813;60.352;15.746;2023-05-10T12:47:43;19.80;46.40
13482;DHT22;6813;60.352;15.746;2023-05-10T12:50:09;20.00;46.50
13482;DHT22;6813;60.352;15.746;2023-05-10T12:52:35;20.10;45.70
13482;DHT22;6813;60.352;15.746;2023-05-10T12:55:01;19.90;46.40
13482;DHT22;6813;60.352;15.746;2023-05-10T12:57:28;20.00;47.00
13482;DHT22;6813;60.352;15.746;2023-05-10T12:59:55;19.80;47.10
13482;DHT22;6813;60.352;15.746;2023-05-10T13:02:21;19.90;47.00
13482;DHT22;6813;60.352;15.746;2023-05-10T13:04:48;19.80;47.20
13482;DHT22;6813;60.352;15.746;2023-05-10T13:07:14;19.60;47.10
13482;DHT22;6813;60.352;15.746;2023-05-10T13:09:40;19.40;48.50
13482;DHT22;6813;60.352;15.746;2023-05-10T13:12:05;19.50;47.60
13482;DHT22;6813;60.352;15.746;2023-05-10T13:14:31;19.40;47.00
13482;DHT22;6813;60.352;15.746;2023-05-10T13:16:57;19.50;47.40
13482;DHT22;6813;60.352;15.746;2023-05-10T13:19:23;19.50;48.40
13482;DHT22;6813;60.352;15.746;2023-05-10T13:21:49;19.70;47.70
13482;DHT22;6813;60.352;15.746;2023-05-10T13:24:14;19.80;47.70
13482;DHT22;6813;60.352;15.746;2023-05-10T13:26:40;19.50;46.40
13482;DHT22;6813;60.352;15.746;2023-05-10T13:29:07;19.40;46.80
13482;DHT22;6813;60.352;15.746;2023-05-10T13:31:33;19.40;46.00
13482;DHT22;6813;60.352;15.746;2023-05-10T13:33:59;19.30;46.90
13482;DHT22;6813;60.352;15.746;2023-05-10T13:36:24;19.40;48.50
13482;DHT22;6813;60.352;15.746;2023-05-10T13:38:50;19.50;46.40
13482;DHT22;6813;60.352;15.746;2023-05-10T13:41:16;19.40;47.30
13482;DHT22;6813;60.352;15.746;2023-05-10T13:43:42;19.40;46.00
13482;DHT22;6813;60.352;15.746;2023-05-10T13:46:07;19.40;46.10
13482;DHT22;6813;60.352;15.746;2023-05-10T13:48:33;19.40;46.50
13482;DHT22;6813;60.352;15.746;2023-05-10T13:50:59;19.50;47.20
13482;DHT22;6813;60.352;15.746;2023-05-10T13:53:24;19.50;46.30
13482;DHT22;6813;60.352;15.746;2023-05-10T13:55:53;19.40;46.00
13482;DHT22;6813;60.352;15.746;2023-05-10T13:58:19;19.50;46.70
13482;DHT22;6813;60.352;15.746;2023-05-10T14:00:45;19.50;46.10
13482;DHT22;6813;60.352;15.746;2023-05-10T14:03:10;19.40;46.10
13482;DHT22;6813;60.352;15.746;2023-05-10T14:05:36;19.50;46.90
13482;DHT22;6813;60.352;15.746;2023-05-10T14:08:02;19.50;46.10
13482;DHT22;6813;60.352;15.746;2023-05-10T14:10:28;19.60;46.40
13482;DHT22;6813;60.352;15.746;2023-05-10T14:12:54;19.40;45.20
13482;DHT22;6813;60.352;15.746;2023-05-10T14:15:19;19.30;46.00
13482;DHT22;6813;60.352;15.746;2023-05-10T14:17:45;19.40;46.00
13482;DHT22;6813;60.352;15.746;2023-05-10T14:20:11;19.40;46.00
13482;DHT22;6813;60.352;15.746;2023-05-10T14:22:37;19.40;47.00
13482;DHT22;6813;60.352;15.746;2023-05-10T14:25:03;19.50;46.10
13482;DHT22;6813;60.352;15.746;2023-05-10T14:27:29;19.30;46.60
13482;DHT22;6813;60.352;15.746;2023-05-10T14:29:55;19.40;47.40
13482;DHT22;6813;60.352;15.746;2023-05-10T14:32:21;19.40;46.70
13482;DHT22;6813;60.352;15.746;2023-05-10T14:34:47;19.40;46.00
13482;DHT22;6813;60.352;15.746;2023-05-10T14:37:13;19.30;47.20
13482;DHT22;6813;60.352;15.746;2023-05-10T14:39:40;19.40;47.30
13482;DHT22;6813;60.352;15.746;2023-05-10T14:42:07;19.50;47.60
13482;DHT22;6813;60.352;15.746;2023-05-10T14:44:34;19.40;45.60
13482;DHT22;6813;60.352;15.746;2023-05-10T14:46:59;19.20;45.90
13482;DHT22;6813;60.352;15.746;2023-05-10T14:49:25;19.10;46.20
13482;DHT22;6813;60.352;15.746;2023-05-10T14:51:51;19.20;46.60
13482;DHT22;6813;60.352;15.746;2023-05-10T14:54:17;19.30;47.00
13482;DHT22;6813;60.352;15.746;2023-05-10T14:56:43;19.30;46.00
13482;DHT22;6813;60.352;15.746;2023-05-10T14:59:09;19.30;46.00
13482;DHT22;6813;60.352;15.746;2023-05-10T15:01:35;19.10;46.20
13482;DHT22;6813;60.352;15.746;2023-05-10T15:04:03;19.00;46.70
13482;DHT22;6813;60.352;15.746;2023-05-10T15:06:33;19.00;47.10
13482;DHT22;6813;60.352;15.746;2023-05-10T15:09:00;18.90;46.80
13482;DHT22;6813;60.352;15.746;2023-05-10T15:11:26;18.80;46.70
13482;DHT22;6813;60.352;15.746;2023-05-10T15:13:52;18.70;46.90
13482;DHT22;6813;60.352;15.746;2023-05-10T15:16:18;18.70;47.40
13482;DHT22;6813;60.352;15.746;2023-05-10T15:18:44;18.60;47.10
13482;DHT22;6813;60.352;15.746;2023-05-10T15:21:11;18.60;46.80
13482;DHT22;6813;60.352;15.746;2023-05-10T15:23:38;18.50;46.50
13482;DHT22;6813;60.352;15.746;2023-05-10T15:26:03;18.50;46.50
13482;DHT22;6813;60.352;15.746;2023-05-10T15:28:29;18.40;46.50
13482;DHT22;6813;60.352;15.746;2023-05-10T15:30:55;18.40;46.60
13482;DHT22;6813;60.352;15.746;2023-05-10T15:33:21;18.40;46.80
13482;DHT22;6813;60.352;15.746;2023-05-10T15:35:47;18.40;46.10
13482;DHT22;6813;60.352;15.746;2023-05-10T15:38:13;18.30;46.60
13482;DHT22;6813;60.352;15.746;2023-05-10T15:40:39;18.30;46.50
13482;DHT22;6813;60.352;15.746;2023-05-10T15:43:05;18.30;46.50
13482;DHT22;6813;60.352;15.746;2023-05-10T15:45:31;18.30;46.90
13482;DHT22;6813;60.352;15.746;2023-05-10T15:47:57;18.30;46.60
13482;DHT22;6813;60.352;15.746;2023-05-10T15:50:24;18.30;47.20
13482;DHT22;6813;60.352;15.746;2023-05-10T15:52:50;18.20;46.30
13482;DHT22;6813;60.352;15.746;2023-05-10T15:55:16;18.20;47.70
13482;DHT22;6813;60.352;15.746;2023-05-10T15:57:43;18.20;46.90
13482;DHT22;6813;60.352;15.746;2023-05-10T16:00:09;18.10;46.70
13482;DHT22;6813;60.352;15.746;2023-05-10T16:02:35;18.20;47.10